Time;durP1;ratioP1;P1;durP2;ratioP2;P2;SDS_P1;SDS_P2;PMS_P1;PMS_P2;Temp;Humidity;BMP_temperature;BMP_pressure;BME280_temperature;BME280_humidity;BME280_pressure;Samples;Min_cycle;Max_cycle;Signal;HPM_P1;HPM_P2
2022/03/15 00:01:26;;;;;;;5.37;4.43;;;;;;;5.72;100.00;100297.81;5114910;28;20278;-79
2022/03/15 00:03:56;;;;;;;4.90;4.33;;;;;;;5.62;100.00;100304.22;5107749;28;20202;-79
2022/03/15 00:06:25;;;;;;;6.77;4.60;;;;;;;5.54;100.00;100297.44;5104709;28;20191;-78
2022/03/15 00:08:54;;;;;;;6.53;4.10;;;;;;;5.66;100.00;100302.38;5109529;28;20215;-78
2022/03/15 00:11:25;;;;;;;5.33;4.30;;;;;;;5.61;100.00;100302.50;5109011;28;20198;-79
2022/03/15 00:13:53;;;;;;;5.67;4.00;;;;;;;5.58;100.00;100299.94;5108606;28;20270;-79
2022/03/15 00:16:22;;;;;;;5.43;3.97;;;;;;;5.50;100.00;100293.13;5111064;28;20222;-79
2022/03/15 00:18:52;;;;;;;5.70;4.10;;;;;;;5.54;100.00;100286.91;5123198;27;20192;-79
2022/03/15 00:21:21;;;;;;;7.20;4.57;;;;;;;5.42;100.00;100288.97;5170617;27;20229;-79
2022/03/15 00:23:52;;;;;;;7.73;4.57;;;;;;;5.30;100.00;100281.34;5169625;27;20204;-79
2022/03/15 00:26:20;;;;;;;7.10;4.63;;;;;;;5.38;100.00;100278.53;5171141;27;20201;-78
2022/03/15 00:28:50;;;;;;;9.00;4.40;;;;;;;5.37;100.00;100279.44;5170285;27;20224;-78
2022/03/15 00:31:19;;;;;;;5.77;3.97;;;;;;;5.48;100.00;100282.66;5171861;27;20187;-78
2022/03/15 00:33:48;;;;;;;8.10;4.47;;;;;;;5.45;100.00;100272.25;5167849;27;20268;-78
2022/03/15 00:36:16;;;;;;;5.40;4.30;;;;;;;5.38;100.00;100270.66;5175698;27;20192;-79
2022/03/15 00:38:45;;;;;;;6.00;3.73;;;;;;;5.35;100.00;100274.25;5171097;27;20275;-79
2022/03/15 00:41:16;;;;;;;5.87;3.80;;;;;;;5.35;100.00;100271.63;5168376;27;20211;-78
2022/03/15 00:43:45;;;;;;;4.70;3.43;;;;;;;5.33;100.00;100268.16;5175720;27;20181;-79
2022/03/15 00:46:15;;;;;;;4.67;3.60;;;;;;;5.17;100.00;100267.66;5169241;27;20201;-78
2022/03/15 00:48:44;;;;;;;5.57;4.00;;;;;;;5.16;100.00;100265.09;5175158;27;20289;-79
2022/03/15 00:51:15;;;;;;;6.37;4.33;;;;;;;5.01;100.00;100257.56;5178134;27;20244;-79
2022/03/15 00:53:43;;;;;;;6.63;3.70;;;;;;;5.19;100.00;100262.38;5175949;27;20356;-79
2022/03/15 00:56:12;;;;;;;6.10;3.97;;;;;;;4.99;100.00;100254.97;5173234;27;20193;-78
2022/03/15 00:58:40;;;;;;;7.07;4.93;;;;;;;5.07;100.00;100262.69;5178427;27;20189;-78
2022/03/15 01:01:09;;;;;;;8.90;5.17;;;;;;;4.93;100.00;100257.75;5183654;27;20208;-79
2022/03/15 01:03:39;;;;;;;7.10;4.40;;;;;;;5.00;100.00;100258.47;5185430;27;20185;-79
2022/03/15 01:06:08;;;;;;;7.20;4.20;;;;;;;4.90;100.00;100252.56;5172627;27;20194;-79
2022/03/15 01:08:39;;;;;;;7.03;4.20;;;;;;;4.95;100.00;100253.34;5170215;27;20209;-79
2022/03/15 01:11:07;;;;;;;8.17;4.37;;;;;;;4.85;100.00;100246.56;5174571;27;20188;-79
2022/03/15 01:13:36;;;;;;;9.10;5.53;;;;;;;4.95;100.00;100241.97;5170708;27;20213;-79
2022/03/15 01:16:06;;;;;;;13.80;7.47;;;;;;;5.03;100.00;100246.16;5172300;27;20189;-79
2022/03/15 01:18:35;;;;;;;10.90;5.83;;;;;;;5.03;100.00;100243.53;5171720;27;20194;-79
2022/03/15 01:21:06;;;;;;;6.13;4.70;;;;;;;5.07;100.00;100241.66;5168062;27;20185;-79
2022/03/15 01:23:36;;;;;;;6.93;4.87;;;;;;;5.03;100.00;100245.28;5172961;27;20189;-79
2022/03/15 01:26:04;;;;;;;7.37;4.97;;;;;;;4.80;100.00;100246.66;5117681;27;20193;-79
2022/03/15 01:28:33;;;;;;;7.90;4.87;;;;;;;4.69;100.00;100247.81;5081046;28;20199;-79
2022/03/15 01:31:02;;;;;;;5.87;4.30;;;;;;;4.78;100.00;100242.34;5085881;28;20208;-79
2022/03/15 01:33:31;;;;;;;9.10;5.40;;;;;;;4.82;100.00;100246.63;5085756;28;20196;-79
2022/03/15 01:36:00;;;;;;;7.57;5.63;;;;;;;5.01;100.00;100239.19;5087387;28;20203;-79
2022/03/15 01:38:31;;;;;;;8.20;5.83;;;;;;;5.01;100.00;100237.41;5086209;28;20196;-79
2022/03/15 01:41:00;;;;;;;5.57;4.63;;;;;;;5.02;100.00;100238.28;5088518;28;20211;-79
2022/03/15 01:43:33;;;;;;;6.67;4.50;;;;;;;5.05;100.00;100239.09;5028534;28;20285;-79
2022/03/15 01:46:02;;;;;;;7.60;4.40;;;;;;;5.12;100.00;100243.31;5044397;28;20199;-79
2022/03/15 01:48:30;;;;;;;5.03;3.13;;;;;;;5.01;100.00;100247.91;5107520;28;20234;-79
2022/03/15 01:50:59;;;;;;;4.93;3.30;;;;;;;5.07;100.00;100247.78;5109086;28;20312;-79
2022/03/15 01:53:32;;;;;;;4.93;2.90;;;;;;;5.08;100.00;100246.88;5104857;28;20273;-79
2022/03/15 01:56:01;;;;;;;5.47;3.13;;;;;;;5.03;100.00;100243.53;5109163;28;20191;-78
2022/03/15 01:58:30;;;;;;;5.17;3.30;;;;;;;5.00;100.00;100234.84;5105556;28;20223;-79
2022/03/15 02:00:59;;;;;;;5.10;3.17;;;;;;;5.04;100.00;100232.13;5110468;27;20632;-79
2022/03/15 02:03:29;;;;;;;6.30;3.17;;;;;;;5.11;100.00;100233.66;5164862;27;20212;-79
2022/03/15 02:05:57;;;;;;;5.27;3.37;;;;;;;5.12;100.00;100234.56;5112807;28;20195;-79
2022/03/15 02:08:26;;;;;;;7.47;3.73;;;;;;;5.15;100.00;100234.47;5103488;28;20236;-79
2022/03/15 02:10:56;;;;;;;5.57;3.50;;;;;;;4.98;100.00;100223.50;5112570;28;20215;-79
2022/03/15 02:13:26;;;;;;;6.80;3.83;;;;;;;5.04;100.00;100223.38;5105836;28;20203;-79
2022/03/15 02:15:54;;;;;;;7.90;4.40;;;;;;;4.97;100.00;100225.28;5107021;28;20255;-78
2022/03/15 02:18:25;;;;;;;7.93;4.13;;;;;;;4.91;100.00;100212.28;5102719;28;20234;-79
2022/03/15 02:20:55;;;;;;;7.37;4.40;;;;;;;4.89;100.00;100212.31;5089587;28;20202;-79
2022/03/15 02:23:25;;;;;;;5.53;3.73;;;;;;;4.69;100.00;100226.81;5094073;27;20203;-79
2022/03/15 02:25:53;;;;;;;8.97;4.60;;;;;;;4.81;100.00;100209.00;5126952;27;20198;-78
2022/03/15 02:28:22;;;;;;;8.20;4.70;;;;;;;4.89;100.00;100216.72;5122763;27;20233;-79
2022/03/15 02:30:52;;;;;;;5.80;4.07;;;;;;;4.92;100.00;100216.63;5132564;27;20210;-79
2022/03/15 02:33:21;;;;;;;7.33;4.23;;;;;;;4.86;100.00;100216.81;5121904;27;20229;-79
2022/03/15 02:35:49;;;;;;;5.70;4.00;;;;;;;4.75;100.00;100213.56;5122574;27;20396;-79
2022/03/15 02:38:21;;;;;;;6.60;4.20;;;;;;;4.74;100.00;100214.47;5134838;27;20212;-79
2022/03/15 02:40:50;;;;;;;7.50;4.47;;;;;;;4.70;100.00;100211.03;5170181;27;20195;-79
2022/03/15 02:43:18;;;;;;;7.87;4.87;;;;;;;4.77;100.00;100215.25;5168663;27;20248;-79
2022/03/15 02:45:48;;;;;;;8.50;4.57;;;;;;;4.75;100.00;100211.81;5035924;28;20205;-79
2022/03/15 02:48:17;;;;;;;7.00;4.37;;;;;;;4.88;100.00;100210.59;5026953;28;20222;-79
2022/03/15 02:50:45;;;;;;;6.27;4.30;;;;;;;4.91;100.00;100209.66;5020360;28;20213;-79
2022/03/15 02:53:14;;;;;;;8.73;4.13;;;;;;;4.89;100.00;100207.06;5022707;28;20216;-79
2022/03/15 02:55:46;;;;;;;6.63;4.37;;;;;;;4.89;100.00;100199.19;5023800;28;20209;-79
2022/03/15 02:58:14;;;;;;;7.77;4.10;;;;;;;4.65;100.00;100194.56;5021952;28;20200;-79
2022/03/15 03:00:44;;;;;;;7.07;3.97;;;;;;;4.75;100.00;100196.06;5026870;28;20190;-79
2022/03/15 03:03:13;;;;;;;5.40;4.00;;;;;;;4.79;100.00;100192.44;5049524;27;20201;-79
2022/03/15 03:05:42;;;;;;;4.90;3.90;;;;;;;4.84;100.00;100197.59;5111824;28;20191;-79
2022/03/15 03:08:12;;;;;;;5.13;3.60;;;;;;;4.79;100.00;100200.31;5108092;28;20191;-78
2022/03/15 03:10:45;;;;;;;10.73;3.90;;;;;;;4.74;100.00;100201.34;5108687;28;20713;-79
2022/03/15 03:13:15;;;;;;;4.83;2.80;;;;;;;4.78;100.00;100192.50;5107269;28;20194;-79
2022/03/15 03:15:44;;;;;;;5.97;3.43;;;;;;;4.80;100.00;100196.78;5105154;28;20195;-79
2022/03/15 03:18:12;;;;;;;7.93;4.20;;;;;;;4.85;100.00;100194.94;5108887;28;20183;-79
2022/03/15 03:20:42;;;;;;;6.23;4.10;;;;;;;4.94;100.00;100188.59;5099458;28;20195;-79
2022/03/15 03:23:11;;;;;;;7.87;3.87;;;;;;;4.93;100.00;100188.66;5109200;28;20237;-79
2022/03/15 03:25:41;;;;;;;9.57;3.50;;;;;;;4.91;100.00;100187.78;5106191;28;20232;-79
2022/03/15 03:28:13;;;;;;;4.43;3.50;;;;;;;4.92;100.00;100184.28;5103931;28;20195;-78
2022/03/15 03:30:45;;;;;;;6.03;3.33;;;;;;;4.99;100.00;100189.34;5143117;27;20244;-79
2022/03/15 03:33:14;;;;;;;5.00;3.53;;;;;;;4.93;100.00;100188.66;5176363;27;20196;-78
2022/03/15 03:35:43;;;;;;;4.00;3.27;;;;;;;4.86;100.00;100187.94;5165955;27;20248;-79
2022/03/15 03:38:12;;;;;;;6.43;3.10;;;;;;;4.84;100.00;100189.72;5163890;27;20197;-79
2022/03/15 03:40:43;;;;;;;6.63;3.87;;;;;;;4.87;100.00;100198.38;5167858;27;20192;-79
2022/03/15 03:43:15;;;;;;;8.60;4.10;;;;;;;4.89;100.00;100186.06;5168604;27;20193;-79
2022/03/15 03:45:44;;;;;;;5.57;4.50;;;;;;;4.97;100.00;100191.16;5165507;27;20204;-80
2022/03/15 03:48:12;;;;;;;6.53;4.23;;;;;;;4.93;100.00;100201.78;5172162;27;20221;-79
2022/03/15 03:50:42;;;;;;;5.97;3.60;;;;;;;5.07;100.00;100204.91;5168202;27;20693;-79
2022/03/15 03:53:11;;;;;;;6.07;3.60;;;;;;;4.92;100.00;100194.78;5171375;27;20191;-79
2022/03/15 03:55:39;;;;;;;5.77;3.60;;;;;;;4.82;100.00;100197.63;5171020;27;20198;-79
2022/03/15 03:58:09;;;;;;;5.13;3.63;;;;;;;4.78;100.00;100195.13;5164490;27;20245;-79
2022/03/15 04:00:41;;;;;;;5.37;3.00;;;;;;;4.81;100.00;100189.78;5166774;27;20558;-79
2022/03/15 04:03:16;;;;;;;5.67;3.17;;;;;;;4.83;100.00;100195.88;5166227;27;20279;-79
2022/03/15 04:05:46;;;;;;;6.27;2.80;;;;;;;4.92;100.00;100190.38;5168512;27;20188;-79
2022/03/15 04:08:16;;;;;;;5.33;3.13;;;;;;;4.83;100.00;100193.25;5169628;27;20196;-79
2022/03/15 04:10:46;;;;;;;5.93;3.20;;;;;;;4.80;100.00;100188.06;5166678;27;20220;-79
2022/03/15 04:13:18;;;;;;;5.23;3.03;;;;;;;4.60;100.00;100191.16;5164702;27;20205;-79
2022/03/15 04:15:50;;;;;;;5.13;3.00;;;;;;;4.75;100.00;100176.81;5167662;27;20192;-79
2022/03/15 04:18:19;;;;;;;4.23;3.30;;;;;;;4.79;100.00;100176.69;5171955;27;20189;-79
2022/03/15 04:20:47;;;;;;;4.13;2.77;;;;;;;4.58;100.00;100172.81;5168580;27;20200;-79
2022/03/15 04:23:18;;;;;;;4.70;3.00;;;;;;;4.63;100.00;100175.31;5169406;27;20186;-79
2022/03/15 04:25:46;;;;;;;7.20;3.17;;;;;;;4.68;100.00;100173.47;5167610;27;20204;-79
2022/03/15 04:28:14;;;;;;;5.57;3.30;;;;;;;4.68;100.00;100175.25;5173904;27;20199;-79
2022/03/15 04:30:43;;;;;;;4.20;3.40;;;;;;;4.59;100.00;100171.94;5172074;27;20291;-79
2022/03/15 04:33:13;;;;;;;62.90;41.97;;;;;;;4.56;100.00;100176.41;5167634;27;20640;-79
2022/03/15 04:35:45;;;;;;;29.87;20.77;;;;;;;4.50;100.00;100179.16;5173350;27;20659;-79
2022/03/15 04:38:14;;;;;;;15.90;9.63;;;;;;;4.58;100.00;100177.22;5173956;27;20181;-79
2022/03/15 04:40:42;;;;;;;10.33;6.63;;;;;;;4.58;100.00;100183.31;5178842;27;20197;-79
2022/03/15 04:43:14;;;;;;;15.13;8.97;;;;;;;4.56;100.00;100186.88;5169032;27;20195;-79
2022/03/15 04:45:43;;;;;;;10.93;7.30;;;;;;;4.60;100.00;100178.91;5175331;27;20200;-79
2022/03/15 04:48:13;;;;;;;9.63;6.00;;;;;;;4.69;100.00;100176.97;5172233;27;20220;-79
2022/03/15 04:50:44;;;;;;;8.40;5.20;;;;;;;4.61;100.00;100174.50;5172661;27;20223;-79
2022/03/15 04:53:14;;;;;;;7.73;4.87;;;;;;;4.67;100.00;100182.25;5169263;27;20185;-79
2022/03/15 04:55:42;;;;;;;6.67;4.00;;;;;;;4.71;100.00;100170.78;5170503;27;20193;-79
2022/03/15 04:58:11;;;;;;;6.53;3.60;;;;;;;4.64;100.00;100165.72;5167240;27;20193;-79
2022/03/15 05:00:41;;;;;;;5.10;2.87;;;;;;;4.69;100.00;100161.22;5171348;27;20201;-79
2022/03/15 05:03:09;;;;;;;6.10;3.33;;;;;;;4.77;100.00;100164.53;5151177;27;20193;-79
2022/03/15 05:05:39;;;;;;;5.77;3.67;;;;;;;4.82;100.00;100168.75;5129660;27;20202;-79
2022/03/15 05:08:07;;;;;;;5.17;3.33;;;;;;;4.79;100.00;100173.22;5131412;27;20201;-80
2022/03/15 05:13:23;;;;;;;3.93;3.27;;;;;;;4.71;100.00;100173.41;5128861;27;20201;-79
2022/03/15 05:15:53;;;;;;;5.20;3.30;;;;;;;4.73;100.00;100165.47;5126435;27;20201;-79
2022/03/15 05:18:24;;;;;;;6.03;3.50;;;;;;;4.78;100.00;100172.34;5128557;27;20213;-79
2022/03/15 05:20:55;;;;;;;5.43;3.30;;;;;;;4.77;100.00;100165.38;5131766;27;20198;-79
2022/03/15 05:23:23;;;;;;;4.97;3.50;;;;;;;4.79;100.00;100178.47;5141386;27;20253;-79
2022/03/15 05:25:52;;;;;;;4.50;3.10;;;;;;;4.75;100.00;100168.97;5167355;27;20189;-79
2022/03/15 05:28:20;;;;;;;6.40;3.53;;;;;;;4.68;100.00;100173.47;5173317;27;20205;-79
2022/03/15 05:30:51;;;;;;;5.60;3.87;;;;;;;4.60;100.00;100163.16;5169065;27;20253;-79
2022/03/15 05:33:19;;;;;;;4.90;3.40;;;;;;;4.64;100.00;100169.22;5168128;27;20217;-79
2022/03/15 05:35:49;;;;;;;6.53;3.77;;;;;;;4.47;100.00;100168.72;5174632;27;20193;-79
2022/03/15 05:38:19;;;;;;;8.57;4.00;;;;;;;4.52;100.00;100164.22;5173204;27;20268;-79
2022/03/15 05:40:47;;;;;;;5.10;3.20;;;;;;;4.61;100.00;100174.50;5173592;27;20768;-79
2022/03/15 05:43:18;;;;;;;7.60;3.83;;;;;;;4.54;100.00;100167.72;5172299;27;20193;-79
2022/03/15 05:45:47;;;;;;;7.43;3.10;;;;;;;4.66;100.00;100169.16;5169241;27;20281;-79
2022/03/15 05:48:16;;;;;;;5.30;3.53;;;;;;;4.60;100.00;100168.41;5169545;27;20212;-79
2022/03/15 05:50:45;;;;;;;5.33;3.20;;;;;;;4.62;100.00;100168.34;5155434;27;20221;-79
2022/03/15 05:53:16;;;;;;;4.03;3.30;;;;;;;4.67;100.00;100161.25;5169004;27;20195;-79
2022/03/15 05:55:46;;;;;;;7.40;3.30;;;;;;;4.62;100.00;100160.50;5174341;27;20185;-79
2022/03/15 05:58:15;;;;;;;6.20;3.57;;;;;;;4.54;100.00;100163.31;5135898;27;20193;-79
2022/03/15 06:00:44;;;;;;;7.73;3.37;;;;;;;4.53;100.00;100158.94;5172552;27;20189;-79
2022/03/15 06:03:14;;;;;;;8.13;3.63;;;;;;;4.60;100.00;100160.53;5166758;27;20189;-79
2022/03/15 06:05:42;;;;;;;6.77;3.37;;;;;;;4.53;100.00;100152.84;5089902;28;20187;-79
2022/03/15 06:08:11;;;;;;;7.30;3.50;;;;;;;4.51;100.00;100155.50;5087649;28;20196;-78
2022/03/15 06:10:40;;;;;;;6.90;3.70;;;;;;;4.51;100.00;100160.75;5086988;28;20192;-80
2022/03/15 06:13:10;;;;;;;7.03;3.57;;;;;;;4.54;100.00;100165.09;5083443;28;20211;-79
2022/03/15 06:15:41;;;;;;;5.00;3.70;;;;;;;4.53;100.00;100155.44;5089199;28;20262;-79
2022/03/15 06:18:10;;;;;;;5.07;3.20;;;;;;;4.63;100.00;100159.59;5087411;28;20195;-80
2022/03/15 06:20:39;;;;;;;5.50;3.17;;;;;;;4.60;100.00;100155.28;5084277;28;20188;-79
2022/03/15 06:23:07;;;;;;;5.17;3.60;;;;;;;4.61;100.00;100153.53;5085990;28;20202;-79
2022/03/15 06:25:36;;;;;;;4.83;3.43;;;;;;;4.65;100.00;100154.31;5037016;28;20198;-79
2022/03/15 06:28:05;;;;;;;7.33;3.90;;;;;;;4.63;100.00;100138.59;5083028;28;20192;-79
2022/03/15 06:30:34;;;;;;;8.83;3.60;;;;;;;4.69;100.00;100138.47;5091742;28;20195;-79
2022/03/15 06:33:04;;;;;;;8.00;3.70;;;;;;;4.75;100.00;100142.72;5051276;28;20220;-79
2022/03/15 06:35:33;;;;;;;5.07;3.57;;;;;;;4.89;100.00;100137.97;5046447;28;20208;-79
2022/03/15 06:38:03;;;;;;;5.50;3.00;;;;;;;4.95;100.00;100136.97;5123931;27;20214;-79
2022/03/15 06:40:33;;;;;;;7.63;3.37;;;;;;;4.86;100.00;100135.44;5121747;27;20194;-79
2022/03/15 06:43:02;;;;;;;6.60;3.83;;;;;;;4.85;100.00;100137.19;5120473;27;20194;-79
2022/03/15 06:45:32;;;;;;;5.80;3.17;;;;;;;4.80;100.00;100138.19;5123153;27;20198;-79
2022/03/15 06:48:02;;;;;;;6.63;3.53;;;;;;;4.68;100.00;100139.38;5125377;27;20218;-79
2022/03/15 06:50:30;;;;;;;6.50;3.77;;;;;;;4.89;100.00;100128.31;5128843;27;20190;-79
2022/03/15 06:53:00;;;;;;;7.63;4.47;;;;;;;4.92;100.00;100127.38;5168161;27;20529;-79
2022/03/15 06:55:29;;;;;;;8.90;5.57;;;;;;;4.94;100.00;100130.00;5099715;28;20195;-79
2022/03/15 06:57:59;;;;;;;5.97;4.20;;;;;;;5.02;100.00;100121.03;5105248;28;20198;-79
2022/03/15 07:00:28;;;;;;;5.00;3.50;;;;;;;5.09;100.00;100119.06;5068169;28;20192;-79
2022/03/15 07:02:57;;;;;;;4.70;3.10;;;;;;;5.17;100.00;100115.34;5061787;28;20227;-79
2022/03/15 07:05:27;;;;;;;6.70;3.80;;;;;;;5.11;100.00;100109.38;5071175;28;20227;-79
2022/03/15 07:07:56;;;;;;;5.63;3.10;;;;;;;5.24;100.00;100110.81;5060725;28;20196;-80
2022/03/15 07:10:24;;;;;;;6.53;3.50;;;;;;;5.37;100.00;100106.06;4991655;28;20218;-79
2022/03/15 07:12:53;;;;;;;9.53;3.73;;;;;;;5.45;100.00;100110.22;4982665;28;20241;-79
2022/03/15 07:15:24;;;;;;;8.80;4.47;;;;;;;5.46;100.00;100111.94;4989446;28;20197;-79
2022/03/15 07:17:59;;;;;;;9.13;4.77;;;;;;;5.53;100.00;100104.75;4991732;28;20218;-79
2022/03/15 07:20:29;;;;;;;7.50;4.40;;;;;;;5.66;100.00;100098.22;5006719;28;20186;-79
2022/03/15 07:22:57;;;;;;;8.80;4.60;;;;;;;5.58;100.00;100097.59;5011040;28;20214;-80
2022/03/15 07:25:27;;;;;;;6.93;4.60;;;;;;;5.66;100.00;100092.13;4972230;28;20636;-79
2022/03/15 07:27:56;;;;;;;7.63;4.30;;;;;;;5.56;100.00;100093.28;5026639;28;20197;-79
2022/03/15 07:30:25;;;;;;;7.97;4.23;;;;;;;5.65;100.00;100091.25;5047972;28;20325;-79
2022/03/15 07:32:59;;;;;;;9.23;5.07;;;;;;;5.69;100.00;100086.75;5039323;28;20349;-80
2022/03/15 07:35:30;;;;;;;9.03;5.17;;;;;;;5.66;100.00;100094.75;5094902;28;20714;-79
2022/03/15 07:37:59;;;;;;;11.73;5.77;;;;;;;5.71;100.00;100090.22;5124643;28;20193;-79
2022/03/15 07:40:31;;;;;;;10.53;4.80;;;;;;;5.90;100.00;100099.31;5124568;28;20760;-79
2022/03/15 07:43:00;;;;;;;8.40;4.67;;;;;;;5.89;100.00;100089.69;5137822;27;20193;-80
2022/03/15 07:45:30;;;;;;;9.40;5.10;;;;;;;6.02;100.00;100090.19;5167392;27;20652;-79
2022/03/15 07:47:58;;;;;;;7.97;4.90;;;;;;;6.08;100.00;100078.63;5166176;27;20227;-79
2022/03/15 07:50:28;;;;;;;10.20;6.90;;;;;;;6.14;100.00;100081.06;5164317;27;20268;-79
2022/03/15 07:52:58;;;;;;;10.83;7.17;;;;;;;6.25;100.00;100079.81;5172371;27;20288;-79
2022/03/15 07:55:26;;;;;;;12.70;6.57;;;;;;;6.41;100.00;100071.44;5164800;27;20201;-79
2022/03/15 07:57:55;;;;;;;8.97;5.53;;;;;;;6.48;100.00;100065.09;5169795;27;20200;-80
2022/03/15 08:00:23;;;;;;;10.47;6.27;;;;;;;6.56;100.00;100065.66;5168443;27;20192;-80
2022/03/15 08:02:52;;;;;;;10.73;5.83;;;;;;;6.65;100.00;100064.50;5172767;27;20193;-79
2022/03/15 08:05:23;;;;;;;9.37;6.20;;;;;;;6.58;100.00;100064.72;5171977;27;20188;-79
2022/03/15 08:07:54;;;;;;;8.00;5.30;;;;;;;6.75;100.00;100058.88;5173844;27;20189;-80
2022/03/15 08:10:23;;;;;;;9.33;5.20;;;;;;;6.92;100.00;100057.44;5174819;27;20686;-79
2022/03/15 08:12:53;;;;;;;7.50;4.07;;;;;;;6.87;100.00;100058.47;5173886;27;20220;-80
2022/03/15 08:15:23;;;;;;;6.57;3.93;;;;;;;6.97;100.00;100059.03;5175088;27;20667;-80
2022/03/15 08:17:51;;;;;;;10.80;4.20;;;;;;;6.76;100.00;100049.22;5169669;27;20194;-79
2022/03/15 08:20:20;;;;;;;8.27;4.23;;;;;;;6.98;100.00;100055.47;5171093;27;20185;-80
2022/03/15 08:22:51;;;;;;;5.93;4.10;;;;;;;6.99;100.00;100058.97;5174783;27;20644;-80
2022/03/15 08:25:21;;;;;;;6.30;4.27;;;;;;;7.05;100.00;100048.22;5169961;27;20192;-79
2022/03/15 08:27:50;;;;;;;4.67;3.77;;;;;;;6.98;100.00;100055.47;5172783;27;20189;-80
2022/03/15 08:30:20;;;;;;;7.07;4.00;;;;;;;7.05;100.00;100051.72;5173343;27;20241;-80
2022/03/15 08:32:49;;;;;;;6.70;4.17;;;;;;;7.02;100.00;100046.53;5170910;27;20261;-80
2022/03/15 08:35:17;;;;;;;9.60;4.77;;;;;;;6.96;100.00;100044.13;5172863;27;20226;-80
2022/03/15 08:37:50;;;;;;;8.73;4.50;;;;;;;7.06;100.00;100039.41;5171615;27;20198;-80
2022/03/15 08:40:19;;;;;;;5.47;4.17;;;;;;;7.05;100.00;100030.66;5168096;27;20280;-79
2022/03/15 08:42:49;;;;;;;8.13;4.70;;;;;;;7.14;100.00;100026.78;5171108;27;20197;-80
2022/03/15 08:45:17;;;;;;;6.87;4.60;;;;;;;7.33;100.00;100025.22;5176063;27;20197;-80
2022/03/15 08:47:46;;;;;;;5.90;4.43;;;;;;;7.43;100.00;100009.91;5172572;27;20217;-80
2022/03/15 08:50:17;;;;;;;6.97;4.13;;;;;;;7.49;100.00;100016.75;5170186;27;20197;-80
2022/03/15 08:52:45;;;;;;;8.53;4.30;;;;;;;7.59;100.00;100005.78;5170859;27;20211;-79
2022/03/15 08:55:16;;;;;;;8.17;4.40;;;;;;;7.66;100.00;100003.78;5175979;27;20192;-80
2022/03/15 08:57:44;;;;;;;8.10;4.20;;;;;;;7.71;100.00;99994.75;5168525;27;20184;-80
2022/03/15 09:00:15;;;;;;;7.13;4.30;;;;;;;7.81;100.00;99981.22;5167838;27;20196;-76
2022/03/15 09:02:45;;;;;;;8.20;4.50;;;;;;;7.88;100.00;99977.44;5109826;28;20202;-80
2022/03/15 09:05:18;;;;;;;9.00;4.83;;;;;;;8.00;100.00;99977.78;5106484;28;20235;-80
2022/03/15 09:07:53;;;;;;;6.90;4.13;;;;;;;7.92;100.00;99973.78;5110948;28;20191;-80
2022/03/15 09:10:22;;;;;;;7.40;4.70;;;;;;;8.08;100.00;99976.63;5034725;28;20236;-79
2022/03/15 09:12:52;;;;;;;8.33;4.60;;;;;;;8.23;100.00;99960.19;4990205;28;20202;-80
2022/03/15 09:15:25;;;;;;;8.73;5.07;;;;;;;8.26;100.00;99968.81;4990351;28;20313;-80
2022/03/15 09:17:54;;;;;;;8.93;4.73;;;;;;;8.32;100.00;99968.56;4932175;29;20209;-80
2022/03/15 09:20:24;;;;;;;7.73;5.30;;;;;;;8.28;100.00;99956.41;4950050;28;20200;-80
2022/03/15 09:22:55;;;;;;;12.37;5.50;;;;;;;8.18;100.00;99959.50;4974001;28;20196;-80
2022/03/15 09:25:25;;;;;;;11.17;4.90;;;;;;;8.36;100.00;99958.75;4973491;28;20211;-80
2022/03/15 09:27:53;;;;;;;8.13;4.77;;;;;;;8.48;100.00;99949.47;4958731;28;20216;-80
2022/03/15 09:30:23;;;;;;;8.90;5.33;;;;;;;8.50;100.00;99953.78;5065203;28;20187;-80
2022/03/15 09:32:51;;;;;;;7.10;4.50;;;;;;;8.60;100.00;99948.97;5111921;28;20195;-80
2022/03/15 09:35:20;;;;;;;8.63;5.10;;;;;;;8.58;100.00;99940.22;5117568;27;20185;-80
2022/03/15 09:37:53;;;;;;;6.93;3.80;;;;;;;8.72;100.00;99939.63;5177519;27;20193;-80
2022/03/15 09:40:25;;;;;;;8.37;4.70;;;;;;;8.75;100.00;99931.56;5177774;27;20189;-79
2022/03/15 09:42:59;;;;;;;9.07;4.70;;;;;;;8.89;100.00;99930.03;5162714;27;20198;-80
2022/03/15 09:45:32;;;;;;;8.63;4.77;;;;;;;8.94;100.00;99918.41;5148432;27;20197;-80
2022/03/15 09:48:04;;;;;;;8.60;5.13;;;;;;;8.94;100.00;99916.63;5150974;27;20771;-80
2022/03/15 09:50:34;;;;;;;7.40;4.83;;;;;;;8.49;100.00;99922.13;5151127;27;20201;-80
2022/03/15 09:53:02;;;;;;;5.53;4.97;;;;;;;8.71;100.00;99922.94;5152893;27;20284;-80
2022/03/15 09:55:31;;;;;;;7.23;5.17;;;;;;;8.71;100.00;99925.56;5145406;27;20227;-79
2022/03/15 09:58:01;;;;;;;6.27;5.30;;;;;;;8.55;100.00;99917.44;5147952;27;20186;-79
2022/03/15 10:00:31;;;;;;;10.30;5.63;;;;;;;8.51;100.00;99923.81;5149623;27;20196;-79
2022/03/15 10:02:59;;;;;;;7.00;5.70;;;;;;;8.56;100.00;99913.03;5156669;27;20194;-79
2022/03/15 10:05:28;;;;;;;7.17;5.63;;;;;;;8.54;100.00;99905.19;5152302;27;20223;-79
2022/03/15 10:08:06;;;;;;;6.30;5.20;;;;;;;8.51;100.00;99915.03;5113142;28;20202;-79
2022/03/15 10:10:38;;;;;;;8.27;5.70;;;;;;;8.59;100.00;99905.84;5112819;28;20695;-79
2022/03/15 10:13:06;;;;;;;11.40;5.77;;;;;;;8.63;100.00;99903.06;5046919;28;20189;-79
2022/03/15 10:15:37;;;;;;;10.33;6.07;;;;;;;8.61;100.00;99897.84;5048908;28;20244;-79
2022/03/15 10:18:05;;;;;;;8.87;6.10;;;;;;;8.47;100.00;99892.31;5048683;28;20201;-79
2022/03/15 10:20:41;;;;;;;9.90;6.37;;;;;;;8.17;100.00;99889.16;5052954;28;20204;-79
2022/03/15 10:23:11;;;;;;;9.67;5.90;;;;;;;8.33;100.00;99882.31;5049023;28;20200;-79
2022/03/15 10:25:52;;;;;;;9.93;6.50;;;;;;;8.46;100.00;99882.69;5062673;28;20191;-79
2022/03/15 10:28:21;;;;;;;8.53;6.27;;;;;;;8.41;100.00;99879.41;5093040;28;20195;-79
2022/03/15 10:30:51;;;;;;;11.73;7.00;;;;;;;8.45;100.00;99883.59;5106375;27;20193;-79
2022/03/15 10:33:20;;;;;;;11.93;6.53;;;;;;;8.49;100.00;99877.25;5153190;27;20659;-79
2022/03/15 10:35:50;;;;;;;10.73;7.07;;;;;;;8.27;100.00;99880.78;5148235;27;20224;-79
2022/03/15 10:38:19;;;;;;;8.83;6.33;;;;;;;8.29;100.00;99886.84;5150878;27;20196;-79
2022/03/15 10:40:50;;;;;;;10.33;5.80;;;;;;;8.49;100.00;99882.53;5144799;27;20202;-79
2022/03/15 10:43:23;;;;;;;10.60;6.43;;;;;;;8.54;100.00;99885.84;5155246;27;20192;-79
2022/03/15 10:45:57;;;;;;;9.53;6.37;;;;;;;8.52;100.00;99888.56;5148993;27;20222;-79
2022/03/15 10:48:29;;;;;;;9.37;6.53;;;;;;;8.58;100.00;99879.50;5145473;27;20233;-79
2022/03/15 10:51:01;;;;;;;8.27;5.97;;;;;;;8.60;100.00;99888.22;5148490;27;20201;-78
2022/03/15 10:53:37;;;;;;;7.70;5.97;;;;;;;8.58;100.00;99880.34;5112851;27;20198;-79
2022/03/15 10:56:10;;;;;;;7.47;5.40;;;;;;;8.51;100.00;99886.84;5147385;27;20185;-79
2022/03/15 10:58:46;;;;;;;9.07;5.90;;;;;;;8.41;100.00;99887.31;5148085;27;20193;-79
2022/03/15 11:01:18;;;;;;;9.87;6.40;;;;;;;8.44;100.00;99884.53;5152479;27;20193;-79
2022/03/15 11:03:57;;;;;;;9.97;5.90;;;;;;;8.32;100.00;99877.97;5144272;27;20190;-79
2022/03/15 11:06:37;;;;;;;10.13;5.87;;;;;;;8.30;100.00;99875.41;5149679;27;20437;-79
2022/03/15 11:09:17;;;;;;;9.33;5.90;;;;;;;8.45;100.00;99879.19;5145804;27;20284;-79
2022/03/15 11:11:47;;;;;;;8.57;6.23;;;;;;;8.32;100.00;99883.25;5146329;27;20193;-79
2022/03/15 11:14:28;;;;;;;9.20;6.20;;;;;;;8.40;100.00;99875.03;5150539;27;20209;-79
2022/03/15 11:16:59;;;;;;;10.17;6.97;;;;;;;8.37;100.00;99877.78;5152500;27;20217;-79
2022/03/15 11:19:33;;;;;;;10.10;7.27;;;;;;;8.26;100.00;99872.94;5154830;27;20186;-79
2022/03/15 11:22:03;;;;;;;11.93;7.30;;;;;;;8.16;100.00;99867.22;5147812;27;20197;-79
2022/03/15 11:24:35;;;;;;;12.00;7.00;;;;;;;8.09;100.00;99880.72;5151335;27;20226;-79
2022/03/15 11:27:07;;;;;;;10.10;7.30;;;;;;;7.98;100.00;99871.47;5150336;27;20194;-79
2022/03/15 11:29:40;;;;;;;10.77;7.40;;;;;;;7.85;100.00;99872.06;5141977;27;20198;-79
2022/03/15 11:32:12;;;;;;;9.17;7.23;;;;;;;7.83;100.00;99874.78;5145340;27;20221;-79
2022/03/15 11:34:42;;;;;;;12.33;7.90;;;;;;;7.74;100.00;99868.09;5146360;27;20209;-78
2022/03/15 11:37:12;;;;;;;11.87;7.90;;;;;;;7.81;100.00;99867.81;5149988;27;20193;-79
2022/03/15 11:39:41;;;;;;;14.90;8.03;;;;;;;7.83;100.00;99866.00;5155903;27;20205;-78
2022/03/15 11:42:12;;;;;;;13.80;8.60;;;;;;;7.76;100.00;99854.84;5147995;27;20189;-78